createdAt,value
2023-04-07T00:01:03.380Z,8.30
2023-04-07T00:03:30.786Z,8.30
2023-04-07T00:05:57.983Z,8.20
2023-04-07T00:08:24.991Z,8.20
2023-04-07T00:10:52.072Z,8.20
2023-04-07T00:13:19.010Z,8.10
2023-04-07T00:15:46.055Z,8.20
2023-04-07T00:18:13.097Z,8.20
2023-04-07T00:20:41.029Z,8.20
2023-04-07T00:23:08.044Z,8.20
2023-04-07T00:25:35.041Z,8.20
2023-04-07T00:28:02.041Z,8.20
2023-04-07T00:30:29.022Z,8.20
2023-04-07T00:32:57.059Z,8.20
2023-04-07T00:35:24.649Z,8.20
2023-04-07T00:37:51.653Z,8.20
2023-04-07T00:40:18.667Z,8.20
2023-04-07T00:42:45.855Z,8.20
2023-04-07T00:45:12.865Z,8.20
2023-04-07T00:47:40.379Z,8.20
2023-04-07T00:50:08.399Z,8.20
2023-04-07T00:52:35.981Z,8.20
2023-04-07T00:55:03.046Z,8.20
2023-04-07T00:57:29.994Z,8.20
2023-04-07T00:59:57.501Z,8.20
2023-04-07T01:05:30.079Z,8.20
2023-04-07T01:08:14.893Z,8.20
2023-04-07T01:10:53.533Z,8.10
2023-04-07T01:13:49.447Z,8.20
2023-04-07T01:16:29.669Z,8.10
2023-04-07T01:19:09.136Z,8.10
2023-04-07T01:21:39.532Z,8.10
2023-04-07T01:24:30.242Z,8.10
2023-04-07T01:27:33.775Z,8.10
2023-04-07T01:30:03.488Z,8.10
2023-04-07T01:32:31.651Z,8.10
2023-04-07T01:35:00.942Z,8.10
2023-04-07T01:37:28.861Z,8.00
2023-04-07T01:39:55.985Z,8.00
2023-04-07T01:42:24.149Z,8.00
2023-04-07T01:44:53.116Z,8.00
2023-04-07T01:47:20.688Z,8.00
2023-04-07T01:49:49.936Z,8.00
2023-04-07T01:52:17.413Z,8.00
2023-04-07T01:54:44.731Z,7.90
2023-04-07T01:57:11.719Z,8.00
2023-04-07T01:59:38.804Z,8.00
2023-04-07T02:02:05.899Z,8.00
2023-04-07T02:04:40.502Z,7.90
2023-04-07T02:07:21.261Z,8.00
2023-04-07T02:09:50.003Z,8.00
2023-04-07T02:12:17.798Z,7.90
2023-04-07T02:14:45.038Z,7.90
2023-04-07T02:17:13.607Z,8.00
2023-04-07T02:19:42.853Z,7.90
2023-04-07T02:22:10.510Z,7.90
2023-04-07T02:24:37.492Z,7.90
2023-04-07T02:27:04.471Z,7.90
2023-04-07T02:29:31.490Z,7.90
2023-04-07T02:31:58.662Z,7.90
2023-04-07T02:34:25.796Z,8.00
2023-04-07T02:36:52.915Z,7.90
2023-04-07T02:39:20.098Z,8.00
2023-04-07T02:41:47.118Z,8.00
2023-04-07T02:44:14.344Z,8.00
2023-04-07T02:46:41.907Z,7.90
2023-04-07T02:49:09.012Z,7.90
2023-04-07T02:51:36.053Z,7.90
2023-04-07T02:54:03.048Z,7.90
2023-04-07T02:56:30.035Z,7.90
2023-04-07T02:58:57.080Z,8.00
2023-04-07T03:01:24.428Z,7.90
2023-04-07T03:03:51.875Z,7.90
2023-04-07T03:06:19.259Z,7.90
2023-04-07T03:08:46.585Z,7.90
2023-04-07T03:11:13.787Z,7.90
2023-04-07T03:13:41.055Z,7.90
2023-04-07T03:16:08.187Z,7.90
2023-04-07T03:18:35.405Z,7.90
2023-04-07T03:21:03.092Z,7.80
2023-04-07T03:23:31.541Z,7.90
2023-04-07T03:25:58.505Z,7.80
2023-04-07T03:28:25.529Z,7.80
2023-04-07T03:30:52.727Z,7.80
2023-04-07T03:33:19.862Z,7.80
2023-04-07T03:35:46.967Z,7.80
2023-04-07T03:38:13.994Z,7.80
2023-04-07T03:40:41.440Z,7.70
2023-04-07T03:43:12.560Z,7.70
2023-04-07T03:45:39.857Z,7.70
2023-04-07T03:48:10.689Z,7.60
2023-04-07T03:50:39.071Z,7.60
2023-04-07T03:53:06.506Z,7.50
2023-04-07T03:55:37.089Z,7.50
2023-04-07T03:58:04.092Z,7.50
2023-04-07T04:00:33.231Z,7.50
2023-04-07T04:03:01.392Z,7.50
2023-04-07T04:05:28.430Z,7.50
2023-04-07T04:07:55.517Z,7.40
2023-04-07T04:10:22.892Z,7.50
2023-04-07T04:12:50.840Z,7.40
2023-04-07T04:15:17.980Z,7.40
2023-04-07T04:17:45.011Z,7.50
2023-04-07T04:20:12.390Z,7.50
2023-04-07T04:22:39.558Z,7.50
2023-04-07T04:25:06.929Z,7.50
2023-04-07T04:27:34.086Z,7.40
2023-04-07T04:30:01.177Z,7.40
2023-04-07T04:32:28.737Z,7.40
2023-04-07T04:34:56.147Z,7.40
2023-04-07T04:37:23.187Z,7.40
2023-04-07T04:39:50.841Z,7.40
2023-04-07T04:42:18.505Z,7.40
2023-04-07T04:44:45.617Z,7.40
2023-04-07T04:47:12.706Z,7.40
2023-04-07T04:49:40.333Z,7.40
2023-04-07T04:52:08.073Z,7.40
2023-04-07T04:54:35.456Z,7.40
2023-04-07T04:57:02.606Z,7.40
2023-04-07T04:59:29.567Z,7.40
2023-04-07T05:01:56.648Z,7.40
2023-04-07T05:04:23.951Z,7.40
2023-04-07T05:06:51.523Z,7.40
2023-04-07T05:09:18.523Z,7.40
2023-04-07T05:11:45.688Z,7.40
2023-04-07T05:14:12.888Z,7.30
2023-04-07T05:16:40.023Z,7.30
2023-04-07T05:19:07.271Z,7.30
2023-04-07T05:21:34.391Z,7.30
2023-04-07T05:24:01.463Z,7.30
2023-04-07T05:26:28.449Z,7.30
2023-04-07T05:28:55.537Z,7.40
2023-04-07T05:31:22.578Z,7.40
2023-04-07T05:33:53.049Z,7.30
2023-04-07T05:36:20.418Z,7.30
2023-04-07T05:38:47.531Z,7.40
2023-04-07T05:41:14.782Z,7.40
2023-04-07T05:43:41.848Z,7.30
2023-04-07T05:46:09.117Z,7.30
2023-04-07T05:48:36.399Z,7.30
2023-04-07T05:51:03.853Z,7.30
2023-04-07T05:53:31.025Z,7.20
2023-04-07T05:55:58.052Z,7.30
2023-04-07T05:58:25.759Z,7.30
2023-04-07T06:00:52.819Z,7.30
2023-04-07T06:03:20.009Z,7.30
2023-04-07T06:05:50.529Z,7.30
2023-04-07T06:08:17.631Z,7.40
2023-04-07T06:10:44.755Z,7.30
2023-04-07T06:13:11.781Z,7.50
2023-04-07T06:15:38.803Z,7.50
2023-04-07T06:18:05.975Z,7.50
2023-04-07T06:20:33.373Z,7.50
2023-04-07T06:23:00.427Z,7.50
2023-04-07T06:25:27.546Z,7.50
2023-04-07T06:27:55.634Z,7.60
2023-04-07T06:30:22.863Z,7.70
2023-04-07T06:32:49.973Z,7.80
2023-04-07T06:35:17.293Z,7.80
2023-04-07T06:37:44.401Z,7.80
2023-04-07T06:40:11.594Z,7.80
2023-04-07T06:42:38.662Z,7.90
2023-04-07T06:45:06.543Z,7.90
2023-04-07T06:47:33.683Z,8.00
2023-04-07T06:50:01.229Z,8.00
2023-04-07T06:52:28.591Z,8.10
2023-04-07T06:54:55.928Z,8.00
2023-04-07T06:57:23.110Z,8.20
2023-04-07T06:59:50.141Z,8.30
2023-04-07T07:02:17.264Z,8.30
2023-04-07T07:04:44.531Z,8.30
2023-04-07T07:07:11.511Z,8.40
2023-04-07T07:09:38.568Z,8.40
2023-04-07T07:12:06.508Z,8.30
2023-04-07T07:14:33.576Z,8.30
2023-04-07T07:17:01.218Z,8.40
2023-04-07T07:19:28.247Z,8.50
2023-04-07T07:21:55.975Z,8.40
2023-04-07T07:24:22.994Z,8.50
2023-04-07T07:26:50.034Z,8.60
2023-04-07T07:29:17.139Z,8.80
2023-04-07T07:31:44.227Z,8.80
2023-04-07T07:34:11.226Z,8.80
2023-04-07T07:36:38.309Z,8.80
2023-04-07T07:39:06.133Z,9.00
2023-04-07T07:41:33.257Z,9.00
2023-04-07T07:44:00.319Z,9.10
2023-04-07T07:46:27.518Z,9.30
2023-04-07T07:48:54.603Z,9.20
2023-04-07T07:51:21.978Z,9.20
2023-04-07T07:53:49.236Z,9.20
2023-04-07T07:56:16.645Z,9.00
2023-04-07T07:58:43.945Z,9.20
2023-04-07T08:01:11.148Z,9.30
2023-04-07T08:03:38.612Z,9.30
2023-04-07T08:06:06.643Z,9.40
2023-04-07T08:08:33.669Z,9.50
2023-04-07T08:11:01.046Z,9.30
2023-04-07T08:13:28.424Z,9.40
2023-04-07T08:15:55.592Z,9.40
2023-04-07T08:18:23.171Z,9.40
2023-04-07T08:20:50.360Z,9.40
2023-04-07T08:23:17.595Z,9.40
2023-04-07T08:25:44.675Z,9.50
2023-04-07T08:28:11.755Z,9.50
2023-04-07T08:30:38.798Z,9.40
2023-04-07T08:33:06.735Z,9.30
2023-04-07T08:35:33.931Z,9.20
2023-04-07T08:38:03.029Z,9.10
2023-04-07T08:40:30.558Z,9.20
2023-04-07T08:43:00.462Z,9.20
2023-04-07T08:45:28.059Z,9.20
2023-04-07T08:47:58.435Z,9.40
2023-04-07T08:50:28.250Z,9.60
2023-04-07T08:53:00.696Z,9.50
2023-04-07T08:55:27.833Z,9.70
2023-04-07T08:57:55.538Z,9.80
2023-04-07T09:00:22.797Z,9.80
2023-04-07T09:02:52.057Z,10.00
2023-04-07T09:05:19.199Z,9.90
2023-04-07T09:07:46.256Z,9.90
2023-04-07T09:10:13.318Z,9.80
2023-04-07T09:12:40.592Z,9.60
2023-04-07T09:15:08.788Z,9.60
2023-04-07T09:17:36.187Z,9.60
2023-04-07T09:20:04.846Z,9.60
2023-04-07T09:22:37.535Z,9.70
2023-04-07T09:25:31.090Z,9.80
2023-04-07T09:28:05.227Z,9.80
2023-04-07T09:30:34.393Z,9.80
2023-04-07T09:33:02.385Z,9.80
2023-04-07T09:35:29.905Z,10.10
2023-04-07T09:38:10.744Z,10.20
2023-04-07T09:40:38.735Z,10.30
2023-04-07T09:43:07.191Z,10.40
2023-04-07T09:45:39.319Z,10.40
2023-04-07T09:48:26.764Z,10.40
2023-04-07T09:51:14.035Z,10.50
2023-04-07T09:54:01.418Z,10.80
2023-04-07T09:56:50.631Z,10.80
2023-04-07T09:59:18.225Z,10.80
2023-04-07T10:01:45.357Z,10.50
2023-04-07T10:04:13.459Z,10.60
2023-04-07T10:06:42.141Z,10.40
2023-04-07T10:09:10.360Z,10.40
2023-04-07T10:11:37.936Z,10.50
2023-04-07T10:14:05.680Z,10.40
2023-04-07T10:16:33.122Z,10.50
2023-04-07T10:19:00.817Z,10.50
2023-04-07T10:21:28.052Z,10.60
2023-04-07T10:24:19.953Z,10.70
2023-04-07T10:27:03.801Z,10.70
2023-04-07T10:29:38.791Z,10.90
2023-04-07T10:32:06.881Z,11.00
2023-04-07T10:34:54.887Z,10.70
2023-04-07T10:37:23.151Z,10.70
2023-04-07T10:40:19.097Z,10.50
2023-04-07T10:42:49.784Z,10.50
2023-04-07T10:45:17.583Z,10.30
2023-04-07T10:48:02.932Z,10.20
2023-04-07T10:50:30.347Z,10.10
2023-04-07T10:53:16.474Z,10.10
2023-04-07T10:55:47.294Z,10.00
2023-04-07T10:58:25.999Z,10.00
2023-04-07T11:01:08.055Z,10.10
2023-04-07T11:03:52.666Z,10.30
2023-04-07T11:06:20.171Z,10.60
2023-04-07T11:08:50.735Z,10.80
2023-04-07T11:11:42.516Z,10.90
2023-04-07T11:14:09.582Z,11.10
2023-04-07T11:16:43.349Z,11.00
2023-04-07T11:19:10.641Z,10.80
2023-04-07T11:21:38.261Z,10.90
2023-04-07T11:24:05.865Z,10.80
2023-04-07T11:26:39.564Z,10.90
2023-04-07T11:29:07.141Z,10.70
2023-04-07T11:31:34.622Z,10.80
2023-04-07T11:34:05.182Z,10.90
2023-04-07T11:36:40.302Z,10.90
2023-04-07T11:39:21.446Z,11.00
2023-04-07T11:41:50.867Z,11.40
2023-04-07T11:44:18.448Z,11.40
2023-04-07T11:47:04.261Z,11.50
2023-04-07T11:49:32.488Z,11.60
2023-04-07T11:52:07.354Z,11.40
2023-04-07T11:54:52.239Z,11.60
2023-04-07T11:57:29.590Z,11.60
2023-04-07T12:00:23.144Z,11.60
2023-04-07T12:02:50.495Z,11.20
2023-04-07T12:05:18.114Z,11.30
2023-04-07T12:07:55.524Z,11.20
2023-04-07T12:10:27.719Z,11.20
2023-04-07T12:12:55.254Z,11.10
2023-04-07T12:15:23.034Z,10.90
2023-04-07T12:17:50.714Z,10.80
2023-04-07T12:20:17.880Z,11.10
2023-04-07T12:22:45.028Z,10.80
2023-04-07T12:25:12.019Z,10.80
2023-04-07T12:27:43.558Z,10.70
2023-04-07T12:30:13.548Z,10.70
2023-04-07T12:32:40.687Z,10.70
2023-04-07T12:35:08.754Z,10.60
2023-04-07T12:37:35.855Z,10.70
2023-04-07T12:40:03.260Z,10.90
2023-04-07T12:42:30.264Z,10.80
2023-04-07T12:44:57.241Z,10.80
2023-04-07T12:47:24.528Z,11.20
2023-04-07T12:49:51.618Z,11.10
2023-04-07T12:52:18.680Z,11.30
2023-04-07T12:54:45.752Z,11.60
2023-04-07T12:57:13.044Z,11.30
2023-04-07T12:59:40.106Z,11.30
2023-04-07T13:02:08.379Z,11.30
2023-04-07T13:04:37.043Z,11.30
2023-04-07T13:07:04.234Z,11.00
2023-04-07T13:09:31.339Z,11.00
2023-04-07T13:11:58.643Z,10.90
2023-04-07T13:14:25.988Z,10.80
2023-04-07T13:16:53.415Z,10.80
2023-04-07T13:19:20.590Z,10.70
2023-04-07T13:21:48.321Z,10.60
2023-04-07T13:24:15.962Z,10.50
2023-04-07T13:26:43.195Z,10.60
2023-04-07T13:29:10.663Z,10.50
2023-04-07T13:31:37.855Z,10.60
2023-04-07T13:34:04.935Z,10.60
2023-04-07T13:36:32.037Z,10.70
2023-04-07T13:38:59.761Z,10.80
2023-04-07T13:41:26.797Z,10.90
2023-04-07T13:43:53.938Z,11.10
2023-04-07T13:46:28.392Z,11.00
2023-04-07T13:48:56.776Z,10.90
2023-04-07T13:51:23.875Z,10.80
2023-04-07T13:53:51.142Z,10.80
2023-04-07T13:56:18.301Z,10.70
2023-04-07T13:58:45.329Z,10.70
2023-04-07T14:01:12.660Z,10.70
2023-04-07T14:03:39.764Z,10.80
2023-04-07T14:06:07.050Z,10.90
2023-04-07T14:08:34.085Z,11.00
2023-04-07T14:11:02.598Z,10.90
2023-04-07T14:13:29.714Z,10.90
2023-04-07T14:15:56.839Z,10.90
2023-04-07T14:18:24.688Z,10.80
2023-04-07T14:20:51.775Z,11.00
2023-04-07T14:23:33.818Z,11.00
2023-04-07T14:26:03.742Z,11.00
2023-04-07T14:28:30.821Z,11.10
2023-04-07T14:30:57.958Z,11.30
2023-04-07T14:33:26.098Z,11.10
2023-04-07T14:35:53.286Z,11.00
2023-04-07T14:38:24.528Z,10.80
2023-04-07T14:40:52.842Z,10.70
2023-04-07T14:43:19.959Z,10.50
2023-04-07T14:45:47.092Z,10.60
2023-04-07T14:48:14.165Z,10.50
2023-04-07T14:50:41.369Z,10.60
2023-04-07T14:53:08.701Z,10.60
2023-04-07T14:55:36.646Z,10.70
2023-04-07T14:58:03.613Z,10.60
2023-04-07T15:00:30.732Z,10.60
2023-04-07T15:02:57.897Z,10.60
2023-04-07T15:05:28.057Z,10.50
2023-04-07T15:07:55.342Z,10.50
2023-04-07T15:10:22.695Z,10.50
2023-04-07T15:12:50.525Z,10.50
2023-04-07T15:15:18.101Z,10.60
2023-04-07T15:17:45.681Z,10.60
2023-04-07T15:20:13.426Z,10.50
2023-04-07T15:22:40.743Z,10.50
2023-04-07T15:25:08.755Z,10.40
2023-04-07T15:27:36.198Z,10.50
2023-04-07T15:30:03.708Z,10.40
2023-04-07T15:32:34.015Z,10.40
2023-04-07T15:35:01.175Z,10.50
2023-04-07T15:37:28.256Z,10.40
2023-04-07T15:39:55.314Z,10.50
2023-04-07T15:42:22.380Z,10.30
2023-04-07T15:44:50.856Z,10.30
2023-04-07T15:47:17.820Z,10.30
2023-04-07T15:49:44.810Z,10.20
2023-04-07T15:52:13.600Z,10.30
2023-04-07T15:54:40.573Z,10.30
2023-04-07T15:57:07.616Z,10.20
2023-04-07T15:59:36.107Z,10.10
2023-04-07T16:02:03.371Z,10.10
2023-04-07T16:04:30.669Z,10.10
2023-04-07T16:06:57.947Z,10.10
2023-04-07T16:09:25.875Z,10.10
2023-04-07T16:11:52.958Z,10.10
2023-04-07T16:14:19.969Z,10.10
2023-04-07T16:16:47.079Z,10.10
2023-04-07T16:19:14.583Z,10.20
2023-04-07T16:21:41.723Z,10.20
2023-04-07T16:24:08.924Z,10.20
2023-04-07T16:26:35.980Z,10.30
2023-04-07T16:29:03.043Z,10.30
2023-04-07T16:31:30.120Z,10.40
2023-04-07T16:33:57.624Z,10.30
2023-04-07T16:36:24.795Z,10.30
2023-04-07T16:38:52.431Z,10.20
2023-04-07T16:41:20.290Z,10.20
2023-04-07T16:43:47.659Z,10.20
2023-04-07T16:46:14.864Z,10.30
2023-04-07T16:48:41.872Z,10.30
2023-04-07T16:51:08.822Z,10.30
2023-04-07T16:53:35.881Z,10.30
2023-04-07T16:56:03.257Z,10.20
2023-04-07T16:58:31.034Z,10.20
2023-04-07T17:00:58.087Z,10.20
2023-04-07T17:03:25.222Z,10.20
2023-04-07T17:05:52.676Z,10.00
2023-04-07T17:08:19.697Z,10.00
2023-04-07T17:10:46.721Z,10.00
2023-04-07T17:13:13.709Z,10.00
2023-04-07T17:15:41.262Z,10.00
2023-04-07T17:18:08.422Z,10.00
2023-04-07T17:20:35.524Z,10.00
2023-04-07T17:23:02.564Z,10.00
2023-04-07T17:25:29.609Z,9.90
2023-04-07T17:27:56.749Z,10.00
2023-04-07T17:30:23.731Z,10.00
2023-04-07T17:32:50.892Z,10.00
2023-04-07T17:35:18.376Z,10.00
2023-04-07T17:37:46.048Z,9.90
2023-04-07T17:40:13.466Z,9.90
2023-04-07T17:42:41.304Z,9.90
2023-04-07T17:45:09.038Z,9.90
2023-04-07T17:47:37.413Z,9.80
2023-04-07T17:50:08.863Z,9.90
2023-04-07T17:52:36.192Z,9.80
2023-04-07T17:55:03.291Z,9.80
2023-04-07T17:57:30.973Z,9.80
2023-04-07T17:59:58.155Z,9.80
2023-04-07T18:02:26.549Z,9.70
2023-04-07T18:04:54.372Z,9.70
2023-04-07T18:07:21.560Z,9.70
2023-04-07T18:09:49.526Z,9.60
2023-04-07T18:12:16.596Z,9.60
2023-04-07T18:14:43.750Z,9.70
2023-04-07T18:17:10.971Z,9.60
2023-04-07T18:19:38.124Z,9.60
2023-04-07T18:22:05.707Z,9.50
2023-04-07T18:24:32.942Z,9.50
2023-04-07T18:27:00.191Z,9.50
2023-04-07T18:29:27.261Z,9.40
2023-04-07T18:31:54.603Z,9.40
2023-04-07T18:34:21.682Z,9.50
2023-04-07T18:36:49.225Z,9.40
2023-04-07T18:39:16.469Z,9.50
2023-04-07T18:41:45.590Z,9.50
2023-04-07T18:44:13.337Z,9.50
2023-04-07T18:46:40.730Z,9.40
2023-04-07T18:49:08.073Z,9.40
2023-04-07T18:51:35.478Z,9.40
2023-04-07T18:54:02.625Z,9.40
2023-04-07T18:56:32.781Z,9.40
2023-04-07T18:59:00.169Z,9.40
2023-04-07T19:01:27.599Z,9.40
2023-04-07T19:03:55.059Z,9.40
2023-04-07T19:06:22.057Z,9.30
2023-04-07T19:08:50.827Z,9.30
2023-04-07T19:11:18.493Z,9.30
2023-04-07T19:13:45.946Z,9.40
2023-04-07T19:16:13.307Z,9.30
2023-04-07T19:18:40.411Z,9.30
2023-04-07T19:21:08.661Z,9.30
2023-04-07T19:23:36.225Z,9.30
2023-04-07T19:26:03.840Z,9.30
2023-04-07T19:28:31.401Z,9.30
2023-04-07T19:30:58.628Z,9.30
2023-04-07T19:33:25.802Z,9.30
2023-04-07T19:35:52.876Z,9.30
2023-04-07T19:38:20.015Z,9.30
2023-04-07T19:40:47.078Z,9.20
2023-04-07T19:43:16.424Z,9.20
2023-04-07T19:45:44.021Z,9.20
2023-04-07T19:48:11.925Z,9.20
2023-04-07T19:50:43.960Z,9.20
2023-04-07T19:53:16.228Z,9.20
2023-04-07T19:55:44.503Z,9.20
2023-04-07T19:58:12.172Z,9.20
2023-04-07T20:00:41.120Z,9.20
2023-04-07T20:03:08.322Z,9.20
2023-04-07T20:05:37.303Z,9.20
2023-04-07T20:08:04.372Z,9.10
2023-04-07T20:10:31.764Z,9.20
2023-04-07T20:12:58.858Z,9.20
2023-04-07T20:15:26.021Z,9.20
2023-04-07T20:17:53.145Z,9.20
2023-04-07T20:20:20.639Z,9.20
2023-04-07T20:22:47.949Z,9.10
2023-04-07T20:25:14.968Z,9.20
2023-04-07T20:27:42.056Z,9.10
2023-04-07T20:30:09.413Z,9.10
2023-04-07T20:32:36.706Z,9.10
2023-04-07T20:35:04.473Z,9.20
2023-04-07T20:37:31.875Z,9.10
2023-04-07T20:39:59.095Z,9.10
2023-04-07T20:42:26.164Z,9.10
2023-04-07T20:44:58.978Z,9.10
2023-04-07T20:47:26.181Z,9.10
2023-04-07T20:49:55.344Z,9.10
2023-04-07T20:52:22.604Z,9.00
2023-04-07T20:54:49.803Z,9.10
2023-04-07T20:57:16.982Z,9.10
2023-04-07T20:59:44.198Z,9.10
2023-04-07T21:02:11.513Z,9.10
2023-04-07T21:04:38.854Z,9.10
2023-04-07T21:07:06.181Z,9.10
2023-04-07T21:09:33.288Z,9.10
2023-04-07T21:12:03.771Z,9.00
2023-04-07T21:14:32.249Z,9.00
2023-04-07T21:16:59.843Z,9.00
2023-04-07T21:19:26.922Z,8.90
2023-04-07T21:21:54.329Z,8.90
2023-04-07T21:24:22.339Z,9.00
2023-04-07T21:26:49.988Z,8.90
2023-04-07T21:29:16.949Z,8.90
2023-04-07T21:31:44.051Z,8.90
2023-04-07T21:34:11.135Z,8.90
2023-04-07T21:36:38.491Z,8.90
2023-04-07T21:39:05.739Z,8.80
2023-04-07T21:41:33.054Z,8.80
2023-04-07T21:44:00.055Z,8.80
2023-04-07T21:46:27.606Z,8.80
2023-04-07T21:48:55.355Z,8.70
2023-04-07T21:51:22.845Z,8.80
2023-04-07T21:53:49.869Z,8.80
2023-04-07T21:56:16.842Z,8.80
2023-04-07T21:58:46.326Z,8.70
2023-04-07T22:01:13.812Z,8.70
2023-04-07T22:03:41.592Z,8.70
2023-04-07T22:06:08.669Z,8.70
2023-04-07T22:08:36.350Z,8.70
2023-04-07T22:11:03.545Z,8.70
2023-04-07T22:13:30.605Z,8.60
2023-04-07T22:15:59.862Z,8.60
2023-04-07T22:18:27.093Z,8.60
2023-04-07T22:20:54.287Z,8.60
2023-04-07T22:23:21.320Z,8.50
2023-04-07T22:25:49.356Z,8.60
2023-04-07T22:28:16.475Z,8.60
2023-04-07T22:30:43.663Z,8.60
2023-04-07T22:33:10.741Z,8.50
2023-04-07T22:35:38.436Z,8.50
2023-04-07T22:38:06.093Z,8.50
2023-04-07T22:40:33.261Z,8.50
2023-04-07T22:43:01.409Z,8.50
2023-04-07T22:45:29.273Z,8.50
2023-04-07T22:47:56.369Z,8.50
2023-04-07T22:50:23.436Z,8.50
2023-04-07T22:52:50.556Z,8.50
2023-04-07T22:55:17.653Z,8.50
2023-04-07T22:57:44.690Z,8.50
2023-04-07T23:00:12.891Z,8.50
2023-04-07T23:02:40.305Z,8.50
2023-04-07T23:05:10.241Z,8.50
2023-04-07T23:07:38.091Z,8.50
2023-04-07T23:10:07.951Z,8.50
2023-04-07T23:12:35.221Z,8.50
2023-04-07T23:15:02.191Z,8.50
2023-04-07T23:17:29.178Z,8.50
2023-04-07T23:19:56.216Z,8.50
2023-04-07T23:22:23.634Z,8.50
2023-04-07T23:24:50.789Z,8.50
2023-04-07T23:27:17.748Z,8.50
2023-04-07T23:29:44.829Z,8.50
2023-04-07T23:32:12.163Z,8.40
2023-04-07T23:34:40.816Z,8.50
2023-04-07T23:37:07.853Z,8.50
2023-04-07T23:39:34.864Z,8.50
2023-04-07T23:42:02.200Z,8.40
2023-04-07T23:44:29.201Z,8.40
2023-04-07T23:46:56.451Z,8.40
2023-04-07T23:49:23.557Z,8.40
2023-04-07T23:51:51.357Z,8.50
2023-04-07T23:54:18.521Z,8.40
2023-04-07T23:56:45.844Z,8.40
2023-04-07T23:59:13.588Z,8.30
